sensor_id;sensor_type;location;lat;lon;timestamp;P1;durP1;ratioP1;P2;durP2;ratioP2
40367;SDS011;26075;43.320;21.920;2023-05-18T00:03:52;4.95;;;2.17;;
40367;SDS011;26075;43.320;21.920;2023-05-18T00:08:55;7.13;;;2.83;;
40367;SDS011;26075;43.320;21.920;2023-05-18T00:13:56;8.70;;;2.60;;
40367;SDS011;26075;43.320;21.920;2023-05-18T00:18:57;6.05;;;2.25;;
40367;SDS011;26075;43.320;21.920;2023-05-18T00:23:58;5.10;;;2.50;;
40367;SDS011;26075;43.320;21.920;2023-05-18T00:28:59;5.30;;;2.10;;
40367;SDS011;26075;43.320;21.920;2023-05-18T00:34:10;4.78;;;2.60;;
40367;SDS011;26075;43.320;21.920;2023-05-18T00:39:11;4.10;;;2.00;;
40367;SDS011;26075;43.320;21.920;2023-05-18T00:44:12;5.05;;;2.20;;
40367;SDS011;26075;43.320;21.920;2023-05-18T00:49:13;4.13;;;2.00;;
40367;SDS011;26075;43.320;21.920;2023-05-18T00:54:15;3.60;;;1.85;;
40367;SDS011;26075;43.320;21.920;2023-05-18T00:59:16;5.70;;;2.20;;
40367;SDS011;26075;43.320;21.920;2023-05-18T01:04:17;4.63;;;2.20;;
40367;SDS011;26075;43.320;21.920;2023-05-18T01:09:20;3.13;;;1.80;;
40367;SDS011;26075;43.320;21.920;2023-05-18T01:14:30;3.55;;;1.70;;
40367;SDS011;26075;43.320;21.920;2023-05-18T01:24:52;5.40;;;2.10;;
40367;SDS011;26075;43.320;21.920;2023-05-18T01:30:03;7.20;;;2.20;;
40367;SDS011;26075;43.320;21.920;2023-05-18T01:35:05;4.07;;;2.00;;
40367;SDS011;26075;43.320;21.920;2023-05-18T01:40:06;3.72;;;1.80;;
40367;SDS011;26075;43.320;21.920;2023-05-18T01:45:08;4.00;;;2.25;;
40367;SDS011;26075;43.320;21.920;2023-05-18T01:50:19;5.80;;;2.28;;
40367;SDS011;26075;43.320;21.920;2023-05-18T01:55:22;4.05;;;2.55;;
40367;SDS011;26075;43.320;21.920;2023-05-18T02:00:25;4.30;;;3.08;;
40367;SDS011;26075;43.320;21.920;2023-05-18T02:05:26;6.95;;;3.13;;
40367;SDS011;26075;43.320;21.920;2023-05-18T02:10:27;5.10;;;2.95;;
40367;SDS011;26075;43.320;21.920;2023-05-18T02:15:28;5.55;;;2.80;;
40367;SDS011;26075;43.320;21.920;2023-05-18T02:20:29;5.70;;;3.00;;
40367;SDS011;26075;43.320;21.920;2023-05-18T02:25:32;3.83;;;2.60;;
40367;SDS011;26075;43.320;21.920;2023-05-18T02:30:33;7.68;;;2.80;;
40367;SDS011;26075;43.320;21.920;2023-05-18T02:35:34;5.97;;;3.05;;
40367;SDS011;26075;43.320;21.920;2023-05-18T02:40:35;5.57;;;2.97;;
40367;SDS011;26075;43.320;21.920;2023-05-18T02:45:37;5.25;;;2.75;;
40367;SDS011;26075;43.320;21.920;2023-05-18T02:50:38;5.43;;;3.10;;
40367;SDS011;26075;43.320;21.920;2023-05-18T02:55:39;5.35;;;3.30;;
40367;SDS011;26075;43.320;21.920;2023-05-18T03:00:40;5.00;;;2.95;;
40367;SDS011;26075;43.320;21.920;2023-05-18T03:05:43;4.13;;;2.83;;
40367;SDS011;26075;43.320;21.920;2023-05-18T03:10:44;5.93;;;3.38;;
40367;SDS011;26075;43.320;21.920;2023-05-18T03:15:45;5.25;;;3.35;;
40367;SDS011;26075;43.320;21.920;2023-05-18T03:20:46;6.90;;;3.70;;
40367;SDS011;26075;43.320;21.920;2023-05-18T03:25:51;4.78;;;3.10;;
40367;SDS011;26075;43.320;21.920;2023-05-18T03:30:53;4.90;;;3.50;;
40367;SDS011;26075;43.320;21.920;2023-05-18T03:35:54;7.10;;;4.30;;
40367;SDS011;26075;43.320;21.920;2023-05-18T03:40:56;6.30;;;3.50;;
40367;SDS011;26075;43.320;21.920;2023-05-18T03:45:57;6.90;;;3.25;;
40367;SDS011;26075;43.320;21.920;2023-05-18T03:50:58;7.03;;;3.60;;
40367;SDS011;26075;43.320;21.920;2023-05-18T03:55:59;5.97;;;3.50;;
40367;SDS011;26075;43.320;21.920;2023-05-18T04:01:01;4.88;;;3.20;;
40367;SDS011;26075;43.320;21.920;2023-05-18T04:06:03;8.13;;;4.57;;
40367;SDS011;26075;43.320;21.920;2023-05-18T04:11:05;7.05;;;4.55;;
40367;SDS011;26075;43.320;21.920;2023-05-18T04:16:06;7.82;;;4.78;;
40367;SDS011;26075;43.320;21.920;2023-05-18T04:26:12;6.30;;;4.78;;
40367;SDS011;26075;43.320;21.920;2023-05-18T04:31:19;6.22;;;4.32;;
40367;SDS011;26075;43.320;21.920;2023-05-18T04:36:20;5.75;;;4.20;;
40367;SDS011;26075;43.320;21.920;2023-05-18T04:41:24;5.18;;;4.22;;
40367;SDS011;26075;43.320;21.920;2023-05-18T04:46:26;6.35;;;4.60;;
40367;SDS011;26075;43.320;21.920;2023-05-18T04:51:27;7.95;;;4.38;;
40367;SDS011;26075;43.320;21.920;2023-05-18T04:56:28;7.32;;;4.25;;
40367;SDS011;26075;43.320;21.920;2023-05-18T05:01:29;7.53;;;4.10;;
40367;SDS011;26075;43.320;21.920;2023-05-18T05:06:30;5.97;;;4.30;;
40367;SDS011;26075;43.320;21.920;2023-05-18T05:11:32;6.60;;;4.38;;
40367;SDS011;26075;43.320;21.920;2023-05-18T05:16:33;11.38;;;4.20;;
40367;SDS011;26075;43.320;21.920;2023-05-18T05:21:35;6.60;;;4.28;;
40367;SDS011;26075;43.320;21.920;2023-05-18T05:26:36;10.38;;;5.10;;
40367;SDS011;26075;43.320;21.920;2023-05-18T05:31:37;6.72;;;4.32;;
40367;SDS011;26075;43.320;21.920;2023-05-18T05:36:38;9.13;;;3.00;;
40367;SDS011;26075;43.320;21.920;2023-05-18T05:41:39;5.80;;;3.88;;
40367;SDS011;26075;43.320;21.920;2023-05-18T05:46:40;7.68;;;4.47;;
40367;SDS011;26075;43.320;21.920;2023-05-18T05:51:41;8.40;;;4.57;;
40367;SDS011;26075;43.320;21.920;2023-05-18T05:56:43;7.88;;;5.57;;
40367;SDS011;26075;43.320;21.920;2023-05-18T06:01:44;9.15;;;4.88;;
40367;SDS011;26075;43.320;21.920;2023-05-18T06:06:46;8.05;;;5.18;;
40367;SDS011;26075;43.320;21.920;2023-05-18T06:11:47;9.88;;;6.18;;
40367;SDS011;26075;43.320;21.920;2023-05-18T06:16:48;9.55;;;6.00;;
40367;SDS011;26075;43.320;21.920;2023-05-18T06:21:49;8.50;;;6.35;;
40367;SDS011;26075;43.320;21.920;2023-05-18T06:26:51;12.55;;;7.22;;
40367;SDS011;26075;43.320;21.920;2023-05-18T06:31:52;9.68;;;6.43;;
40367;SDS011;26075;43.320;21.920;2023-05-18T06:36:53;8.65;;;6.43;;
40367;SDS011;26075;43.320;21.920;2023-05-18T06:41:54;8.38;;;5.80;;
40367;SDS011;26075;43.320;21.920;2023-05-18T06:46:55;11.00;;;7.07;;
40367;SDS011;26075;43.320;21.920;2023-05-18T06:51:56;13.73;;;7.80;;
40367;SDS011;26075;43.320;21.920;2023-05-18T06:56:57;14.18;;;7.78;;
40367;SDS011;26075;43.320;21.920;2023-05-18T07:01:58;9.43;;;7.15;;
40367;SDS011;26075;43.320;21.920;2023-05-18T07:06:59;11.13;;;7.50;;
40367;SDS011;26075;43.320;21.920;2023-05-18T07:12:00;11.82;;;7.60;;
40367;SDS011;26075;43.320;21.920;2023-05-18T07:17:02;12.13;;;6.90;;
40367;SDS011;26075;43.320;21.920;2023-05-18T07:22:03;9.73;;;7.20;;
40367;SDS011;26075;43.320;21.920;2023-05-18T07:27:06;15.15;;;7.88;;
40367;SDS011;26075;43.320;21.920;2023-05-18T07:32:07;12.32;;;7.50;;
40367;SDS011;26075;43.320;21.920;2023-05-18T07:37:08;11.60;;;7.03;;
40367;SDS011;26075;43.320;21.920;2023-05-18T07:42:09;10.02;;;7.05;;
40367;SDS011;26075;43.320;21.920;2023-05-18T07:47:10;11.65;;;7.25;;
40367;SDS011;26075;43.320;21.920;2023-05-18T07:52:11;12.30;;;6.97;;
40367;SDS011;26075;43.320;21.920;2023-05-18T07:57:12;12.68;;;6.93;;
40367;SDS011;26075;43.320;21.920;2023-05-18T08:02:13;8.63;;;5.97;;
40367;SDS011;26075;43.320;21.920;2023-05-18T08:07:16;8.30;;;6.45;;
40367;SDS011;26075;43.320;21.920;2023-05-18T08:12:17;10.65;;;6.00;;
40367;SDS011;26075;43.320;21.920;2023-05-18T08:17:18;11.15;;;6.25;;
40367;SDS011;26075;43.320;21.920;2023-05-18T08:22:20;14.63;;;6.10;;
40367;SDS011;26075;43.320;21.920;2023-05-18T08:27:21;9.88;;;6.70;;
40367;SDS011;26075;43.320;21.920;2023-05-18T08:32:22;11.93;;;6.57;;
40367;SDS011;26075;43.320;21.920;2023-05-18T08:37:23;10.25;;;6.95;;
40367;SDS011;26075;43.320;21.920;2023-05-18T08:42:28;14.23;;;6.88;;
40367;SDS011;26075;43.320;21.920;2023-05-18T08:47:32;15.52;;;8.38;;
40367;SDS011;26075;43.320;21.920;2023-05-18T08:52:34;9.70;;;8.27;;
40367;SDS011;26075;43.320;21.920;2023-05-18T08:57:36;14.90;;;9.05;;
40367;SDS011;26075;43.320;21.920;2023-05-18T09:02:38;9.82;;;8.77;;
40367;SDS011;26075;43.320;21.920;2023-05-18T09:07:40;11.20;;;9.60;;
40367;SDS011;26075;43.320;21.920;2023-05-18T09:12:42;11.43;;;10.32;;
40367;SDS011;26075;43.320;21.920;2023-05-18T09:17:45;11.25;;;9.25;;
40367;SDS011;26075;43.320;21.920;2023-05-18T09:22:46;14.32;;;9.63;;
40367;SDS011;26075;43.320;21.920;2023-05-18T09:27:50;10.77;;;9.85;;
40367;SDS011;26075;43.320;21.920;2023-05-18T09:32:52;10.85;;;9.85;;
40367;SDS011;26075;43.320;21.920;2023-05-18T09:37:53;15.07;;;11.35;;
40367;SDS011;26075;43.320;21.920;2023-05-18T09:42:54;14.68;;;11.35;;
40367;SDS011;26075;43.320;21.920;2023-05-18T09:47:55;14.05;;;11.32;;
40367;SDS011;26075;43.320;21.920;2023-05-18T09:52:56;13.05;;;11.63;;
40367;SDS011;26075;43.320;21.920;2023-05-18T09:57:57;12.40;;;11.20;;
40367;SDS011;26075;43.320;21.920;2023-05-18T10:03:01;16.67;;;10.85;;
40367;SDS011;26075;43.320;21.920;2023-05-18T10:08:03;13.50;;;11.90;;
40367;SDS011;26075;43.320;21.920;2023-05-18T10:13:05;13.73;;;11.50;;
40367;SDS011;26075;43.320;21.920;2023-05-18T10:18:06;13.00;;;11.57;;
40367;SDS011;26075;43.320;21.920;2023-05-18T10:23:07;13.25;;;11.95;;
40367;SDS011;26075;43.320;21.920;2023-05-18T10:28:09;16.58;;;11.68;;
40367;SDS011;26075;43.320;21.920;2023-05-18T10:33:11;14.07;;;12.00;;
40367;SDS011;26075;43.320;21.920;2023-05-18T10:38:13;13.32;;;12.02;;
40367;SDS011;26075;43.320;21.920;2023-05-18T10:43:18;14.30;;;12.80;;
40367;SDS011;26075;43.320;21.920;2023-05-18T10:48:20;15.82;;;14.18;;
40367;SDS011;26075;43.320;21.920;2023-05-18T10:53:25;16.05;;;13.93;;
40367;SDS011;26075;43.320;21.920;2023-05-18T10:58:27;17.27;;;15.57;;
40367;SDS011;26075;43.320;21.920;2023-05-18T11:03:29;17.10;;;14.82;;
40367;SDS011;26075;43.320;21.920;2023-05-18T11:08:32;16.83;;;15.13;;
40367;SDS011;26075;43.320;21.920;2023-05-18T11:13:34;18.23;;;14.82;;
40367;SDS011;26075;43.320;21.920;2023-05-18T11:18:41;18.05;;;15.48;;
40367;SDS011;26075;43.320;21.920;2023-05-18T11:29:14;19.20;;;15.63;;
40367;SDS011;26075;43.320;21.920;2023-05-18T11:39:53;19.25;;;15.15;;
40367;SDS011;26075;43.320;21.920;2023-05-18T11:44:54;18.13;;;16.33;;
40367;SDS011;26075;43.320;21.920;2023-05-18T11:49:55;16.52;;;14.82;;
40367;SDS011;26075;43.320;21.920;2023-05-18T11:54:57;16.90;;;15.20;;
40367;SDS011;26075;43.320;21.920;2023-05-18T11:59:59;16.70;;;15.02;;
40367;SDS011;26075;43.320;21.920;2023-05-18T12:05:00;17.33;;;14.93;;
40367;SDS011;26075;43.320;21.920;2023-05-18T12:10:11;18.63;;;14.05;;
40367;SDS011;26075;43.320;21.920;2023-05-18T12:15:19;18.10;;;14.68;;
40367;SDS011;26075;43.320;21.920;2023-05-18T12:20:22;18.13;;;14.30;;
40367;SDS011;26075;43.320;21.920;2023-05-18T12:25:27;16.45;;;14.68;;
40367;SDS011;26075;43.320;21.920;2023-05-18T12:30:28;16.90;;;14.98;;
40367;SDS011;26075;43.320;21.920;2023-05-18T12:35:35;19.55;;;14.30;;
40367;SDS011;26075;43.320;21.920;2023-05-18T12:40:36;16.92;;;14.85;;
40367;SDS011;26075;43.320;21.920;2023-05-18T12:45:45;17.23;;;15.32;;
40367;SDS011;26075;43.320;21.920;2023-05-18T12:50:46;18.10;;;15.35;;
40367;SDS011;26075;43.320;21.920;2023-05-18T12:55:55;18.98;;;15.32;;
40367;SDS011;26075;43.320;21.920;2023-05-18T13:00:57;17.17;;;14.35;;
40367;SDS011;26075;43.320;21.920;2023-05-18T13:06:04;17.80;;;14.90;;
40367;SDS011;26075;43.320;21.920;2023-05-18T13:11:07;18.05;;;14.13;;
40367;SDS011;26075;43.320;21.920;2023-05-18T13:16:15;19.40;;;14.55;;
40367;SDS011;26075;43.320;21.920;2023-05-18T13:21:17;18.10;;;14.00;;
40367;SDS011;26075;43.320;21.920;2023-05-18T13:26:22;21.90;;;16.92;;
40367;SDS011;26075;43.320;21.920;2023-05-18T13:31:23;18.08;;;16.15;;
40367;SDS011;26075;43.320;21.920;2023-05-18T13:36:25;19.55;;;16.17;;
40367;SDS011;26075;43.320;21.920;2023-05-18T13:41:28;19.80;;;16.92;;
40367;SDS011;26075;43.320;21.920;2023-05-18T13:46:30;21.75;;;16.30;;
40367;SDS011;26075;43.320;21.920;2023-05-18T13:51:31;25.58;;;16.35;;
40367;SDS011;26075;43.320;21.920;2023-05-18T13:56:37;20.70;;;18.05;;
40367;SDS011;26075;43.320;21.920;2023-05-18T14:01:39;20.15;;;16.55;;
40367;SDS011;26075;43.320;21.920;2023-05-18T14:06:41;23.63;;;16.90;;
40367;SDS011;26075;43.320;21.920;2023-05-18T14:11:42;23.52;;;17.35;;
40367;SDS011;26075;43.320;21.920;2023-05-18T14:16:43;20.58;;;17.38;;
40367;SDS011;26075;43.320;21.920;2023-05-18T14:21:44;19.52;;;16.40;;
40367;SDS011;26075;43.320;21.920;2023-05-18T14:26:45;20.83;;;16.95;;
40367;SDS011;26075;43.320;21.920;2023-05-18T14:31:46;20.05;;;16.95;;
40367;SDS011;26075;43.320;21.920;2023-05-18T14:36:48;19.73;;;16.30;;
40367;SDS011;26075;43.320;21.920;2023-05-18T14:41:49;22.60;;;18.05;;
40367;SDS011;26075;43.320;21.920;2023-05-18T14:46:51;22.85;;;16.55;;
40367;SDS011;26075;43.320;21.920;2023-05-18T14:51:52;19.23;;;15.63;;
40367;SDS011;26075;43.320;21.920;2023-05-18T14:56:53;20.23;;;17.50;;
40367;SDS011;26075;43.320;21.920;2023-05-18T15:01:54;21.77;;;17.98;;
40367;SDS011;26075;43.320;21.920;2023-05-18T15:06:55;20.67;;;16.13;;
40367;SDS011;26075;43.320;21.920;2023-05-18T15:11:56;21.08;;;16.60;;
40367;SDS011;26075;43.320;21.920;2023-05-18T15:16:57;21.00;;;16.67;;
40367;SDS011;26075;43.320;21.920;2023-05-18T15:21:59;21.48;;;18.70;;
40367;SDS011;26075;43.320;21.920;2023-05-18T15:27:00;20.60;;;16.17;;
40367;SDS011;26075;43.320;21.920;2023-05-18T15:32:02;22.27;;;17.75;;
40367;SDS011;26075;43.320;21.920;2023-05-18T15:37:03;22.13;;;17.65;;
40367;SDS011;26075;43.320;21.920;2023-05-18T15:42:04;20.55;;;17.15;;
40367;SDS011;26075;43.320;21.920;2023-05-18T15:47:05;22.08;;;17.42;;
40367;SDS011;26075;43.320;21.920;2023-05-18T15:52:07;19.50;;;16.13;;
40367;SDS011;26075;43.320;21.920;2023-05-18T15:57:08;26.63;;;18.77;;
40367;SDS011;26075;43.320;21.920;2023-05-18T16:02:09;25.92;;;18.27;;
40367;SDS011;26075;43.320;21.920;2023-05-18T16:07:10;21.27;;;16.77;;
40367;SDS011;26075;43.320;21.920;2023-05-18T16:12:11;21.02;;;17.15;;
40367;SDS011;26075;43.320;21.920;2023-05-18T16:17:12;31.85;;;18.10;;
40367;SDS011;26075;43.320;21.920;2023-05-18T16:22:13;20.27;;;16.55;;
40367;SDS011;26075;43.320;21.920;2023-05-18T16:27:14;23.17;;;17.73;;
40367;SDS011;26075;43.320;21.920;2023-05-18T16:32:15;21.73;;;16.33;;
40367;SDS011;26075;43.320;21.920;2023-05-18T16:37:17;26.10;;;17.08;;
40367;SDS011;26075;43.320;21.920;2023-05-18T16:42:20;18.85;;;16.05;;
40367;SDS011;26075;43.320;21.920;2023-05-18T16:47:21;26.23;;;19.15;;
40367;SDS011;26075;43.320;21.920;2023-05-18T16:52:22;26.08;;;18.33;;
40367;SDS011;26075;43.320;21.920;2023-05-18T16:57:23;26.90;;;19.70;;
40367;SDS011;26075;43.320;21.920;2023-05-18T17:02:25;29.83;;;20.25;;
40367;SDS011;26075;43.320;21.920;2023-05-18T17:07:26;31.40;;;21.30;;
40367;SDS011;26075;43.320;21.920;2023-05-18T17:12:28;26.80;;;19.95;;
40367;SDS011;26075;43.320;21.920;2023-05-18T17:17:29;31.55;;;21.52;;
40367;SDS011;26075;43.320;21.920;2023-05-18T17:22:30;29.52;;;20.00;;
40367;SDS011;26075;43.320;21.920;2023-05-18T17:27:31;33.10;;;20.95;;
40367;SDS011;26075;43.320;21.920;2023-05-18T17:32:32;31.23;;;22.08;;
40367;SDS011;26075;43.320;21.920;2023-05-18T17:37:34;30.38;;;20.67;;
40367;SDS011;26075;43.320;21.920;2023-05-18T17:42:35;35.63;;;20.75;;
40367;SDS011;26075;43.320;21.920;2023-05-18T17:47:36;35.25;;;21.85;;
40367;SDS011;26075;43.320;21.920;2023-05-18T17:52:37;33.53;;;21.25;;
40367;SDS011;26075;43.320;21.920;2023-05-18T17:57:38;30.83;;;20.60;;
40367;SDS011;26075;43.320;21.920;2023-05-18T18:02:43;31.98;;;22.02;;
40367;SDS011;26075;43.320;21.920;2023-05-18T18:07:45;26.00;;;16.88;;
40367;SDS011;26075;43.320;21.920;2023-05-18T18:12:46;32.85;;;21.58;;
40367;SDS011;26075;43.320;21.920;2023-05-18T18:17:47;33.55;;;22.58;;
40367;SDS011;26075;43.320;21.920;2023-05-18T18:22:48;33.08;;;20.60;;
40367;SDS011;26075;43.320;21.920;2023-05-18T18:27:49;33.85;;;21.42;;
40367;SDS011;26075;43.320;21.920;2023-05-18T18:32:50;31.65;;;22.48;;
40367;SDS011;26075;43.320;21.920;2023-05-18T18:37:51;37.60;;;23.42;;
40367;SDS011;26075;43.320;21.920;2023-05-18T18:42:52;37.13;;;23.33;;
40367;SDS011;26075;43.320;21.920;2023-05-18T18:47:53;36.28;;;22.63;;
40367;SDS011;26075;43.320;21.920;2023-05-18T18:52:55;35.10;;;22.88;;
40367;SDS011;26075;43.320;21.920;2023-05-18T18:57:56;40.53;;;23.52;;
40367;SDS011;26075;43.320;21.920;2023-05-18T19:02:58;39.45;;;22.85;;
40367;SDS011;26075;43.320;21.920;2023-05-18T19:07:59;36.67;;;23.80;;
40367;SDS011;26075;43.320;21.920;2023-05-18T19:13:00;38.15;;;22.45;;
40367;SDS011;26075;43.320;21.920;2023-05-18T19:18:04;38.17;;;23.92;;
40367;SDS011;26075;43.320;21.920;2023-05-18T19:23:06;26.80;;;14.52;;
40367;SDS011;26075;43.320;21.920;2023-05-18T19:28:07;32.83;;;22.20;;
40367;SDS011;26075;43.320;21.920;2023-05-18T19:33:08;31.70;;;20.40;;
40367;SDS011;26075;43.320;21.920;2023-05-18T19:38:10;34.30;;;22.25;;
40367;SDS011;26075;43.320;21.920;2023-05-18T19:43:11;36.63;;;21.85;;
40367;SDS011;26075;43.320;21.920;2023-05-18T19:48:12;33.33;;;21.38;;
40367;SDS011;26075;43.320;21.920;2023-05-18T19:53:13;35.83;;;22.80;;
40367;SDS011;26075;43.320;21.920;2023-05-18T19:58:14;33.85;;;20.80;;
40367;SDS011;26075;43.320;21.920;2023-05-18T20:03:15;32.28;;;21.50;;
40367;SDS011;26075;43.320;21.920;2023-05-18T20:08:18;32.35;;;21.35;;
40367;SDS011;26075;43.320;21.920;2023-05-18T20:13:20;30.17;;;21.08;;
40367;SDS011;26075;43.320;21.920;2023-05-18T20:18:21;31.90;;;21.33;;
40367;SDS011;26075;43.320;21.920;2023-05-18T20:23:25;32.70;;;20.40;;
40367;SDS011;26075;43.320;21.920;2023-05-18T20:28:26;28.85;;;19.27;;
40367;SDS011;26075;43.320;21.920;2023-05-18T20:33:29;27.42;;;17.98;;
40367;SDS011;26075;43.320;21.920;2023-05-18T20:38:33;26.17;;;18.73;;
40367;SDS011;26075;43.320;21.920;2023-05-18T20:43:34;26.40;;;18.77;;
40367;SDS011;26075;43.320;21.920;2023-05-18T20:48:38;31.88;;;20.25;;
40367;SDS011;26075;43.320;21.920;2023-05-18T20:53:40;31.95;;;20.63;;
40367;SDS011;26075;43.320;21.920;2023-05-18T20:58:41;28.15;;;19.17;;
40367;SDS011;26075;43.320;21.920;2023-05-18T21:03:47;26.98;;;19.10;;
40367;SDS011;26075;43.320;21.920;2023-05-18T21:08:48;29.77;;;19.88;;
40367;SDS011;26075;43.320;21.920;2023-05-18T21:13:50;27.90;;;20.27;;
40367;SDS011;26075;43.320;21.920;2023-05-18T21:18:51;27.65;;;19.33;;
40367;SDS011;26075;43.320;21.920;2023-05-18T21:23:52;27.90;;;17.40;;
40367;SDS011;26075;43.320;21.920;2023-05-18T21:28:53;28.52;;;17.33;;
40367;SDS011;26075;43.320;21.920;2023-05-18T21:33:54;25.17;;;18.60;;
40367;SDS011;26075;43.320;21.920;2023-05-18T21:38:55;28.38;;;17.88;;
40367;SDS011;26075;43.320;21.920;2023-05-18T21:43:56;30.58;;;18.85;;
40367;SDS011;26075;43.320;21.920;2023-05-18T21:48:57;30.75;;;18.77;;
40367;SDS011;26075;43.320;21.920;2023-05-18T21:53:59;30.02;;;20.75;;
40367;SDS011;26075;43.320;21.920;2023-05-18T21:59:01;31.67;;;21.38;;
40367;SDS011;26075;43.320;21.920;2023-05-18T22:04:02;35.22;;;22.63;;
40367;SDS011;26075;43.320;21.920;2023-05-18T22:09:03;36.20;;;23.70;;
40367;SDS011;26075;43.320;21.920;2023-05-18T22:14:05;35.88;;;23.75;;
40367;SDS011;26075;43.320;21.920;2023-05-18T22:19:06;36.08;;;23.67;;
40367;SDS011;26075;43.320;21.920;2023-05-18T22:24:07;37.70;;;23.83;;
40367;SDS011;26075;43.320;21.920;2023-05-18T22:29:08;38.58;;;24.50;;
40367;SDS011;26075;43.320;21.920;2023-05-18T22:34:09;35.10;;;23.83;;
40367;SDS011;26075;43.320;21.920;2023-05-18T22:39:10;37.78;;;23.83;;
40367;SDS011;26075;43.320;21.920;2023-05-18T22:44:11;39.92;;;24.55;;
40367;SDS011;26075;43.320;21.920;2023-05-18T22:49:12;36.70;;;24.08;;
40367;SDS011;26075;43.320;21.920;2023-05-18T22:54:15;40.00;;;24.75;;
40367;SDS011;26075;43.320;21.920;2023-05-18T22:59:16;39.08;;;25.60;;
40367;SDS011;26075;43.320;21.920;2023-05-18T23:04:17;36.40;;;24.67;;
40367;SDS011;26075;43.320;21.920;2023-05-18T23:09:18;36.55;;;24.20;;
40367;SDS011;26075;43.320;21.920;2023-05-18T23:14:20;35.40;;;25.10;;
40367;SDS011;26075;43.320;21.920;2023-05-18T23:19:21;37.03;;;24.23;;
40367;SDS011;26075;43.320;21.920;2023-05-18T23:24:25;40.50;;;25.52;;
40367;SDS011;26075;43.320;21.920;2023-05-18T23:29:26;41.75;;;25.63;;
40367;SDS011;26075;43.320;21.920;2023-05-18T23:34:27;34.35;;;23.27;;
40367;SDS011;26075;43.320;21.920;2023-05-18T23:39:29;33.08;;;21.90;;
40367;SDS011;26075;43.320;21.920;2023-05-18T23:44:30;31.80;;;21.23;;
40367;SDS011;26075;43.320;21.920;2023-05-18T23:49:31;27.95;;;19.13;;
40367;SDS011;26075;43.320;21.920;2023-05-18T23:54:32;24.30;;;16.98;;
40367;SDS011;26075;43.320;21.920;2023-05-18T23:59:36;25.00;;;16.55;;
